createdAt,value
2019-05-19T00:00:32.064Z,4.70
2019-05-19T00:03:01.180Z,4.07
2019-05-19T00:05:30.199Z,4.03
2019-05-19T00:07:59.363Z,4.00
2019-05-19T00:10:29.448Z,3.97
2019-05-19T00:12:58.607Z,3.97
2019-05-19T00:15:27.678Z,4.27
2019-05-19T00:17:56.810Z,3.80
2019-05-19T00:20:25.793Z,3.47
2019-05-19T00:22:54.874Z,3.93
2019-05-19T00:25:23.914Z,4.13
2019-05-19T00:27:53.053Z,3.50
2019-05-19T00:30:22.092Z,3.93
2019-05-19T00:32:51.165Z,3.80
2019-05-19T00:35:20.208Z,3.83
2019-05-19T00:37:49.705Z,4.03
2019-05-19T00:40:18.750Z,4.43
2019-05-19T00:42:47.912Z,4.53
2019-05-19T00:45:16.963Z,3.87
2019-05-19T00:47:46.150Z,4.00
2019-05-19T00:50:15.311Z,3.80
2019-05-19T00:52:44.532Z,3.50
2019-05-19T00:55:13.591Z,4.07
2019-05-19T00:57:42.696Z,3.57
2019-05-19T01:00:13.813Z,4.43
2019-05-19T01:02:42.949Z,4.20
2019-05-19T01:05:11.958Z,3.90
2019-05-19T01:07:41.088Z,4.07
2019-05-19T01:10:10.159Z,4.97
2019-05-19T01:12:39.324Z,4.23
2019-05-19T01:15:08.365Z,4.50
2019-05-19T01:17:37.486Z,4.67
2019-05-19T01:20:06.728Z,4.40
2019-05-19T01:22:35.949Z,5.20
2019-05-19T01:25:05.440Z,5.10
2019-05-19T01:27:34.526Z,4.83
2019-05-19T01:30:03.732Z,5.73
2019-05-19T01:32:32.892Z,5.20
2019-05-19T01:35:02.030Z,5.33
2019-05-19T01:37:31.146Z,5.20
2019-05-19T01:40:00.317Z,5.60
2019-05-19T01:42:29.316Z,5.57
2019-05-19T01:44:58.390Z,5.73
2019-05-19T01:47:27.491Z,5.40
2019-05-19T01:50:16.472Z,5.87
2019-05-19T01:52:27.494Z,5.50
2019-05-19T01:54:56.608Z,5.17
2019-05-19T01:57:25.698Z,5.13
2019-05-19T01:59:54.692Z,5.23
2019-05-19T02:02:23.783Z,5.40
2019-05-19T02:04:52.960Z,4.93
2019-05-19T02:07:22.037Z,4.60
2019-05-19T02:09:51.088Z,4.67
2019-05-19T02:12:20.175Z,4.33
2019-05-19T02:14:49.247Z,5.07
2019-05-19T02:17:18.361Z,4.20
2019-05-19T02:19:47.532Z,3.97
2019-05-19T02:22:16.617Z,4.00
2019-05-19T02:24:45.762Z,4.43
2019-05-19T02:27:14.913Z,4.03
2019-05-19T02:29:44.073Z,4.07
2019-05-19T02:32:13.124Z,4.33
2019-05-19T02:34:42.330Z,4.67
2019-05-19T02:37:11.425Z,4.43
2019-05-19T02:39:40.663Z,4.53
2019-05-19T02:42:09.901Z,4.23
2019-05-19T02:44:39.354Z,4.37
2019-05-19T02:47:08.483Z,4.30
2019-05-19T02:49:37.687Z,4.23
2019-05-19T02:52:06.881Z,4.30
2019-05-19T02:54:36.249Z,4.10
2019-05-19T02:57:05.363Z,4.20
2019-05-19T02:59:34.919Z,4.33
2019-05-19T03:02:07.075Z,4.20
2019-05-19T03:04:36.149Z,3.77
2019-05-19T03:07:05.276Z,3.67
2019-05-19T03:09:34.352Z,4.90
2019-05-19T03:12:03.422Z,6.27
2019-05-19T03:14:32.502Z,4.53
2019-05-19T03:17:01.564Z,3.93
2019-05-19T03:19:30.673Z,4.10
2019-05-19T03:21:59.824Z,4.30
2019-05-19T03:24:28.814Z,3.83
2019-05-19T03:26:57.868Z,4.00
2019-05-19T03:29:32.082Z,3.67
2019-05-19T03:32:12.094Z,3.60
2019-05-19T03:34:38.395Z,3.87
2019-05-19T03:37:09.094Z,4.07
2019-05-19T03:39:38.262Z,3.97
2019-05-19T03:42:10.338Z,4.17
2019-05-19T03:44:38.156Z,3.87
2019-05-19T03:47:07.358Z,4.23
2019-05-19T03:49:36.469Z,4.03
2019-05-19T03:52:05.550Z,4.93
2019-05-19T03:54:34.705Z,4.40
2019-05-19T03:57:03.828Z,3.53
2019-05-19T03:59:32.845Z,3.37
2019-05-19T04:02:02.035Z,4.40
2019-05-19T04:04:31.164Z,5.00
2019-05-19T04:07:00.174Z,5.50
2019-05-19T04:09:29.258Z,5.43
2019-05-19T04:11:58.332Z,6.13
2019-05-19T04:14:27.453Z,5.80
2019-05-19T04:16:56.635Z,6.20
2019-05-19T04:19:25.800Z,6.77
2019-05-19T04:21:54.914Z,7.00
2019-05-19T04:24:23.995Z,6.57
2019-05-19T04:26:53.052Z,6.63
2019-05-19T04:29:22.130Z,6.97
2019-05-19T04:31:51.204Z,7.13
2019-05-19T04:34:20.306Z,6.47
2019-05-19T04:36:49.382Z,7.33
2019-05-19T04:39:18.482Z,6.93
2019-05-19T04:41:47.899Z,7.70
2019-05-19T04:44:17.135Z,6.37
2019-05-19T04:46:46.256Z,7.50
2019-05-19T04:49:15.379Z,6.60
2019-05-19T04:51:44.453Z,6.30
2019-05-19T04:54:13.562Z,6.27
2019-05-19T04:56:42.618Z,6.40
2019-05-19T04:59:13.308Z,6.33
2019-05-19T05:01:42.376Z,6.13
2019-05-19T05:04:11.721Z,5.17
2019-05-19T05:06:40.819Z,4.63
2019-05-19T05:09:10.013Z,5.10
2019-05-19T05:11:39.057Z,4.40
2019-05-19T05:14:08.236Z,4.77
2019-05-19T05:16:37.576Z,5.27
2019-05-19T05:19:06.663Z,4.47
2019-05-19T05:21:35.776Z,4.37
2019-05-19T05:24:04.965Z,4.70
2019-05-19T05:26:34.045Z,4.40
2019-05-19T05:29:03.658Z,4.37
2019-05-19T05:31:32.713Z,5.03
2019-05-19T05:34:02.057Z,4.80
2019-05-19T05:36:31.129Z,4.43
2019-05-19T05:39:00.322Z,4.73
2019-05-19T05:41:29.372Z,4.83
2019-05-19T05:43:58.575Z,4.90
2019-05-19T05:46:27.599Z,4.70
2019-05-19T05:48:56.691Z,4.60
2019-05-19T05:51:25.831Z,4.67
2019-05-19T05:53:55.075Z,5.07
2019-05-19T05:56:24.171Z,4.67
2019-05-19T05:58:53.358Z,4.70
2019-05-19T06:01:22.475Z,4.07
2019-05-19T06:03:51.674Z,4.23
2019-05-19T06:06:20.747Z,4.47
2019-05-19T06:08:49.852Z,4.10
2019-05-19T06:11:18.988Z,4.10
2019-05-19T06:13:49.652Z,3.87
2019-05-19T06:16:19.021Z,4.10
2019-05-19T06:18:48.189Z,4.37
2019-05-19T06:21:17.348Z,4.20
2019-05-19T06:23:46.460Z,4.33
2019-05-19T06:26:15.619Z,4.40
2019-05-19T06:28:44.717Z,3.83
2019-05-19T06:31:13.868Z,4.23
2019-05-19T06:33:42.999Z,4.70
2019-05-19T06:36:12.253Z,4.93
2019-05-19T06:38:41.381Z,4.43
2019-05-19T06:41:10.559Z,4.90
2019-05-19T06:43:39.720Z,4.67
2019-05-19T06:46:08.888Z,4.30
2019-05-19T06:48:38.129Z,5.13
2019-05-19T06:51:07.410Z,5.00
2019-05-19T06:53:36.521Z,5.30
2019-05-19T06:56:05.631Z,5.53
2019-05-19T06:58:34.737Z,5.20
2019-05-19T07:01:03.993Z,5.23
2019-05-19T07:03:33.138Z,4.90
2019-05-19T07:06:02.354Z,5.27
2019-05-19T07:08:31.400Z,4.53
2019-05-19T07:11:00.503Z,4.27
2019-05-19T07:13:29.750Z,4.83
2019-05-19T07:15:58.905Z,4.77
2019-05-19T07:18:27.971Z,5.57
2019-05-19T07:20:57.128Z,5.40
2019-05-19T07:23:28.609Z,4.87
2019-05-19T07:26:00.845Z,4.87
2019-05-19T07:28:32.890Z,4.93
2019-05-19T07:31:02.437Z,4.43
2019-05-19T07:33:31.541Z,4.47
2019-05-19T07:36:00.703Z,4.90
2019-05-19T07:38:29.948Z,4.70
2019-05-19T07:40:59.038Z,4.60
2019-05-19T07:43:28.181Z,4.87
2019-05-19T07:45:57.250Z,5.10
2019-05-19T07:48:26.388Z,4.90
2019-05-19T07:50:55.474Z,4.70
2019-05-19T07:53:24.652Z,5.03
2019-05-19T07:55:53.682Z,4.83
2019-05-19T07:58:22.786Z,5.03
2019-05-19T08:00:51.943Z,5.20
2019-05-19T08:03:21.114Z,5.40
2019-05-19T08:05:50.173Z,5.63
2019-05-19T08:08:19.296Z,5.77
2019-05-19T08:10:48.512Z,6.00
2019-05-19T08:13:17.574Z,6.13
2019-05-19T08:15:46.698Z,6.17
2019-05-19T08:18:15.899Z,6.20
2019-05-19T08:20:44.993Z,6.33
2019-05-19T08:23:14.122Z,7.50
2019-05-19T08:25:43.180Z,7.37
2019-05-19T08:28:12.301Z,8.10
2019-05-19T08:30:41.378Z,7.97
2019-05-19T08:33:10.759Z,7.53
2019-05-19T08:35:40.123Z,7.70
2019-05-19T08:38:09.272Z,8.13
2019-05-19T08:40:38.281Z,7.53
2019-05-19T08:43:07.460Z,7.70
2019-05-19T08:45:36.513Z,8.10
2019-05-19T08:48:05.657Z,8.67
2019-05-19T08:50:34.712Z,7.70
2019-05-19T08:53:03.958Z,8.40
2019-05-19T08:55:33.086Z,8.00
2019-05-19T08:58:02.247Z,8.00
2019-05-19T09:00:36.110Z,7.97
2019-05-19T09:03:02.411Z,7.33
2019-05-19T09:05:32.010Z,6.80
2019-05-19T09:08:01.187Z,6.57
2019-05-19T09:10:30.292Z,7.57
2019-05-19T09:12:59.415Z,7.57
2019-05-19T09:15:28.493Z,7.10
2019-05-19T09:17:57.560Z,8.17
2019-05-19T09:20:26.618Z,8.20
2019-05-19T09:22:55.611Z,8.37
2019-05-19T09:25:24.646Z,8.37
2019-05-19T09:27:53.747Z,8.73
2019-05-19T09:30:22.849Z,9.80
2019-05-19T09:32:51.879Z,9.03
2019-05-19T09:35:20.934Z,8.87
2019-05-19T09:37:49.987Z,9.97
2019-05-19T09:40:19.112Z,8.87
2019-05-19T09:42:48.142Z,8.70
2019-05-19T09:45:17.270Z,9.20
2019-05-19T09:47:46.294Z,7.83
2019-05-19T09:50:15.426Z,8.27
2019-05-19T09:52:44.479Z,8.67
2019-05-19T09:55:13.598Z,7.53
2019-05-19T09:57:42.654Z,7.57
2019-05-19T10:00:13.304Z,7.00
2019-05-19T10:02:42.350Z,6.40
2019-05-19T10:05:11.446Z,6.33
2019-05-19T10:07:40.456Z,12.60
2019-05-19T10:10:17.105Z,9.73
2019-05-19T10:12:47.607Z,7.60
2019-05-19T10:15:16.793Z,7.30
2019-05-19T10:17:45.883Z,6.03
2019-05-19T10:20:15.068Z,5.77
2019-05-19T10:22:44.072Z,5.93
2019-05-19T10:25:22.528Z,5.33
2019-05-19T10:27:44.059Z,5.60
2019-05-19T10:30:13.209Z,5.93
2019-05-19T10:32:42.349Z,5.40
2019-05-19T10:35:11.423Z,9.47
2019-05-19T10:37:40.647Z,5.70
2019-05-19T10:40:09.741Z,4.90
2019-05-19T10:42:38.841Z,4.73
2019-05-19T10:45:08.929Z,3.83
2019-05-19T10:47:38.031Z,3.50
2019-05-19T10:50:07.184Z,4.23
2019-05-19T10:52:36.313Z,4.40
2019-05-19T10:55:05.613Z,3.77
2019-05-19T10:57:34.781Z,3.53
2019-05-19T11:00:03.914Z,3.30
2019-05-19T11:02:33.031Z,3.20
2019-05-19T11:05:02.124Z,3.93
2019-05-19T11:07:31.151Z,3.73
2019-05-19T11:10:00.285Z,3.27
2019-05-19T11:12:29.362Z,3.93
2019-05-19T11:14:58.455Z,3.33
2019-05-19T11:17:27.542Z,3.40
2019-05-19T11:19:58.299Z,3.60
2019-05-19T11:22:27.405Z,2.97
2019-05-19T11:24:56.506Z,2.77
2019-05-19T11:27:25.623Z,2.83
2019-05-19T11:29:54.689Z,3.23
2019-05-19T11:32:23.757Z,12.63
2019-05-19T11:34:52.905Z,2.90
2019-05-19T11:37:21.974Z,3.13
2019-05-19T11:39:51.155Z,3.13
2019-05-19T11:42:20.765Z,3.13
2019-05-19T11:44:49.950Z,3.80
2019-05-19T11:47:20.585Z,2.77
2019-05-19T11:49:49.606Z,2.40
2019-05-19T11:52:18.788Z,2.43
2019-05-19T11:54:47.902Z,2.33
2019-05-19T11:57:17.001Z,2.33
2019-05-19T11:59:46.879Z,1.93
2019-05-19T12:02:15.968Z,2.30
2019-05-19T12:04:44.993Z,2.33
2019-05-19T12:07:14.088Z,1.83
2019-05-19T12:09:43.983Z,2.60
2019-05-19T12:12:12.974Z,2.03
2019-05-19T12:14:42.057Z,1.90
2019-05-19T12:17:11.126Z,1.60
2019-05-19T12:19:40.170Z,2.00
2019-05-19T12:22:09.240Z,2.20
2019-05-19T12:24:38.281Z,2.20
2019-05-19T12:27:07.298Z,1.97
2019-05-19T12:29:36.373Z,2.00
2019-05-19T12:32:05.402Z,1.40
2019-05-19T12:34:34.498Z,1.47
2019-05-19T12:37:03.578Z,1.93
2019-05-19T12:39:32.614Z,1.70
2019-05-19T12:42:01.672Z,1.60
2019-05-19T12:44:30.760Z,1.50
2019-05-19T12:46:59.771Z,1.70
2019-05-19T12:49:28.841Z,1.40
2019-05-19T12:51:58.000Z,1.60
2019-05-19T12:54:27.075Z,1.23
2019-05-19T12:56:56.097Z,1.60
2019-05-19T12:59:25.201Z,1.50
2019-05-19T13:01:54.271Z,1.43
2019-05-19T13:04:23.450Z,1.43
2019-05-19T13:06:52.543Z,1.60
2019-05-19T13:09:21.619Z,1.60
2019-05-19T13:11:50.673Z,1.43
2019-05-19T13:14:19.702Z,1.40
2019-05-19T13:16:48.707Z,1.47
2019-05-19T13:19:17.894Z,1.40
2019-05-19T13:21:46.957Z,1.33
2019-05-19T13:24:16.081Z,1.40
2019-05-19T13:26:56.224Z,1.40
2019-05-19T13:29:15.946Z,1.50
2019-05-19T13:31:45.179Z,1.60
2019-05-19T13:34:14.326Z,1.20
2019-05-19T13:36:43.408Z,1.60
2019-05-19T13:39:12.542Z,3.00
2019-05-19T13:41:41.570Z,1.90
2019-05-19T13:44:10.635Z,3.13
2019-05-19T13:46:39.716Z,2.20
2019-05-19T13:49:08.925Z,1.53
2019-05-19T13:51:38.112Z,2.00
2019-05-19T13:54:07.217Z,1.90
2019-05-19T13:56:36.258Z,2.20
2019-05-19T13:59:05.298Z,1.50
2019-05-19T14:01:34.456Z,1.70
2019-05-19T14:04:03.467Z,1.80
2019-05-19T14:06:32.648Z,1.70
2019-05-19T14:09:01.690Z,1.67
2019-05-19T14:11:30.852Z,1.70
2019-05-19T14:13:59.938Z,1.80
2019-05-19T14:16:28.979Z,1.47
2019-05-19T14:18:58.127Z,1.63
2019-05-19T14:21:27.185Z,1.60
2019-05-19T14:23:56.226Z,1.87
2019-05-19T14:26:25.585Z,2.00
2019-05-19T14:28:54.668Z,1.67
2019-05-19T14:31:23.794Z,2.30
2019-05-19T14:33:52.877Z,1.70
2019-05-19T14:36:22.010Z,1.30
2019-05-19T14:39:05.934Z,1.50
2019-05-19T14:41:37.561Z,1.80
2019-05-19T14:44:07.746Z,1.73
2019-05-19T14:46:36.809Z,1.70
2019-05-19T14:49:05.887Z,2.00
2019-05-19T14:51:34.993Z,1.90
2019-05-19T14:54:04.082Z,1.73
2019-05-19T14:56:33.750Z,2.00
2019-05-19T14:59:03.084Z,1.97
2019-05-19T15:01:32.204Z,1.90
2019-05-19T15:04:01.265Z,2.00
2019-05-19T15:06:30.396Z,2.37
2019-05-19T15:08:59.716Z,1.80
2019-05-19T15:11:28.936Z,1.70
2019-05-19T15:13:58.005Z,2.43
2019-05-19T15:16:27.101Z,1.90
2019-05-19T15:18:56.269Z,1.73
2019-05-19T15:21:25.424Z,2.27
2019-05-19T15:23:54.516Z,2.27
2019-05-19T15:26:23.543Z,2.23
2019-05-19T15:28:52.704Z,2.60
2019-05-19T15:31:21.801Z,1.97
2019-05-19T15:33:50.843Z,2.60
2019-05-19T15:36:19.890Z,2.10
2019-05-19T15:38:49.009Z,1.80
2019-05-19T15:41:18.084Z,2.27
2019-05-19T15:43:47.127Z,2.23
2019-05-19T15:46:18.197Z,1.90
2019-05-19T15:48:47.419Z,2.47
2019-05-19T15:51:27.835Z,2.07
2019-05-19T15:53:47.300Z,2.97
2019-05-19T15:56:16.375Z,1.97
2019-05-19T15:58:45.399Z,2.47
2019-05-19T16:01:14.431Z,2.37
2019-05-19T16:03:43.532Z,1.70
2019-05-19T16:06:12.601Z,1.87
2019-05-19T16:08:41.750Z,1.87
2019-05-19T16:11:10.923Z,1.87
2019-05-19T16:13:40.069Z,1.80
2019-05-19T16:16:09.119Z,2.00
2019-05-19T16:18:38.495Z,1.97
2019-05-19T16:21:07.638Z,1.80
2019-05-19T16:23:36.805Z,1.83
2019-05-19T16:26:05.847Z,1.90
2019-05-19T16:28:35.003Z,1.97
2019-05-19T16:31:04.030Z,2.90
2019-05-19T16:33:33.127Z,2.00
2019-05-19T16:36:02.178Z,2.00
2019-05-19T16:38:31.383Z,2.00
2019-05-19T16:41:00.522Z,1.63
2019-05-19T16:43:29.624Z,2.10
2019-05-19T16:45:58.693Z,1.57
2019-05-19T16:48:27.920Z,1.70
2019-05-19T16:50:56.967Z,1.70
2019-05-19T16:53:26.107Z,2.00
2019-05-19T16:55:55.273Z,5.90
2019-05-19T16:58:24.348Z,2.73
2019-05-19T17:00:53.575Z,2.10
2019-05-19T17:03:22.809Z,2.20
2019-05-19T17:05:52.083Z,1.90
2019-05-19T17:08:21.230Z,1.90
2019-05-19T17:10:50.298Z,1.40
2019-05-19T17:13:20.396Z,2.33
2019-05-19T17:15:49.621Z,1.77
2019-05-19T17:18:18.950Z,1.87
2019-05-19T17:20:48.070Z,1.93
2019-05-19T17:23:17.167Z,1.90
2019-05-19T17:25:46.273Z,1.80
2019-05-19T17:28:15.313Z,1.80
2019-05-19T17:30:44.413Z,1.73
2019-05-19T17:33:13.490Z,2.40
2019-05-19T17:35:42.571Z,1.87
2019-05-19T17:38:11.844Z,1.80
2019-05-19T17:40:41.225Z,1.50
2019-05-19T17:43:10.259Z,1.87
2019-05-19T17:45:39.344Z,1.50
2019-05-19T17:48:11.665Z,1.60
2019-05-19T17:50:39.512Z,2.40
2019-05-19T17:53:08.602Z,2.03
2019-05-19T17:55:37.862Z,2.40
2019-05-19T17:58:06.973Z,2.20
2019-05-19T18:00:37.960Z,1.40
2019-05-19T18:03:07.149Z,1.13
2019-05-19T18:05:36.355Z,1.70
2019-05-19T18:08:05.488Z,1.50
2019-05-19T18:10:34.626Z,1.53
2019-05-19T18:13:03.743Z,1.50
2019-05-19T18:15:32.811Z,1.23
2019-05-19T18:18:01.921Z,1.70
2019-05-19T18:20:31.083Z,1.53
2019-05-19T18:23:00.475Z,2.93
2019-05-19T18:25:29.761Z,2.98
2019-05-19T18:27:58.924Z,2.50
2019-05-19T18:30:28.015Z,2.70
2019-05-19T18:32:57.239Z,2.17
2019-05-19T18:35:26.396Z,3.20
2019-05-19T18:37:55.518Z,4.30
2019-05-19T18:40:26.140Z,3.27
2019-05-19T18:42:55.234Z,3.40
2019-05-19T18:45:24.311Z,2.40
2019-05-19T18:47:53.411Z,2.60
2019-05-19T18:50:22.588Z,3.20
2019-05-19T18:52:51.666Z,3.10
2019-05-19T18:55:20.851Z,3.00
2019-05-19T18:57:49.880Z,2.80
2019-05-19T19:00:35.927Z,2.77
2019-05-19T19:03:05.666Z,2.47
2019-05-19T19:05:34.811Z,2.80
2019-05-19T19:08:05.162Z,2.57
2019-05-19T19:10:34.285Z,2.47
2019-05-19T19:13:03.392Z,2.27
2019-05-19T19:15:32.430Z,2.67
2019-05-19T19:18:01.554Z,2.73
2019-05-19T19:20:30.677Z,2.57
2019-05-19T19:22:59.866Z,2.80
2019-05-19T19:25:29.179Z,2.97
2019-05-19T19:27:59.089Z,2.97
2019-05-19T19:30:28.142Z,3.17
2019-05-19T19:32:57.248Z,3.50
2019-05-19T19:35:26.340Z,4.95
2019-05-19T19:37:55.461Z,4.72
2019-05-19T19:40:31.165Z,3.67
2019-05-19T19:43:00.604Z,4.67
2019-05-19T19:45:29.652Z,5.15
2019-05-19T19:48:02.349Z,4.10
2019-05-19T19:50:31.377Z,3.87
2019-05-19T19:53:00.512Z,4.17
2019-05-19T19:55:29.654Z,4.70
2019-05-19T19:57:58.730Z,5.37
2019-05-19T20:00:41.032Z,6.30
2019-05-19T20:03:10.110Z,5.47
2019-05-19T20:05:39.170Z,5.67
2019-05-19T20:08:09.342Z,5.60
2019-05-19T20:10:38.447Z,5.93
2019-05-19T20:13:07.619Z,5.87
2019-05-19T20:15:37.395Z,16.43
2019-05-19T20:18:06.413Z,5.67
2019-05-19T20:20:35.469Z,5.83
2019-05-19T20:23:04.887Z,4.63
2019-05-19T20:25:37.038Z,3.87
2019-05-19T20:28:05.577Z,3.70
2019-05-19T20:30:36.510Z,4.53
2019-05-19T20:33:05.701Z,5.60
2019-05-19T20:35:34.977Z,5.73
2019-05-19T20:38:04.236Z,5.57
2019-05-19T20:40:33.326Z,5.20
2019-05-19T20:43:02.449Z,5.70
2019-05-19T20:45:31.501Z,5.60
2019-05-19T20:48:00.587Z,5.10
2019-05-19T20:50:29.911Z,4.70
2019-05-19T20:52:59.014Z,4.73
2019-05-19T20:55:28.061Z,4.80
2019-05-19T20:57:57.101Z,4.60
2019-05-19T21:00:26.423Z,4.97
2019-05-19T21:02:55.495Z,5.20
2019-05-19T21:05:24.647Z,6.40
2019-05-19T21:07:53.703Z,5.70
2019-05-19T21:10:22.819Z,5.13
2019-05-19T21:12:51.921Z,5.30
2019-05-19T21:15:20.950Z,5.43
2019-05-19T21:17:50.344Z,5.07
2019-05-19T21:20:19.448Z,4.37
2019-05-19T21:22:48.494Z,4.97
2019-05-19T21:25:17.632Z,5.10
2019-05-19T21:27:46.672Z,4.87
2019-05-19T21:30:15.759Z,4.43
2019-05-19T21:32:44.879Z,4.53
2019-05-19T21:35:13.999Z,4.73
2019-05-19T21:37:43.165Z,4.43
2019-05-19T21:40:12.208Z,4.90
2019-05-19T21:42:41.301Z,4.10
2019-05-19T21:45:10.384Z,4.57
2019-05-19T21:47:39.494Z,3.60
2019-05-19T21:50:08.645Z,3.27
2019-05-19T21:52:37.697Z,3.70
2019-05-19T21:55:06.965Z,3.80
2019-05-19T21:57:36.040Z,3.80
2019-05-19T22:00:06.786Z,4.20
2019-05-19T22:02:35.843Z,3.87
2019-05-19T22:05:04.999Z,3.90
2019-05-19T22:07:42.843Z,4.37
2019-05-19T22:10:12.261Z,4.30
2019-05-19T22:12:41.384Z,4.27
2019-05-19T22:15:11.710Z,3.83
2019-05-19T22:17:41.951Z,4.83
2019-05-19T22:20:11.021Z,4.10
2019-05-19T22:22:40.047Z,4.00
2019-05-19T22:25:09.212Z,4.30
2019-05-19T22:27:38.570Z,4.20
2019-05-19T22:30:07.623Z,4.40
2019-05-19T22:32:36.674Z,4.50
2019-05-19T22:35:05.916Z,4.50
2019-05-19T22:37:35.006Z,4.80
2019-05-19T22:40:04.282Z,4.30
2019-05-19T22:42:33.334Z,4.63
2019-05-19T22:45:02.423Z,4.83
2019-05-19T22:47:31.487Z,5.40
2019-05-19T22:50:00.510Z,5.60
2019-05-19T22:52:32.364Z,5.87
2019-05-19T22:55:01.518Z,5.37
2019-05-19T22:57:30.657Z,5.43
2019-05-19T22:59:59.811Z,4.83
2019-05-19T23:02:30.742Z,5.10
2019-05-19T23:04:59.983Z,5.77
2019-05-19T23:07:29.085Z,5.50
2019-05-19T23:09:58.169Z,5.33
2019-05-19T23:12:27.329Z,5.60
2019-05-19T23:14:56.357Z,6.20
2019-05-19T23:17:25.482Z,5.33
2019-05-19T23:19:54.513Z,5.77
2019-05-19T23:22:23.593Z,5.73
2019-05-19T23:24:52.695Z,5.60
2019-05-19T23:27:21.778Z,5.30
2019-05-19T23:29:51.025Z,6.10
2019-05-19T23:32:20.194Z,5.77
2019-05-19T23:34:49.405Z,5.43
2019-05-19T23:37:18.543Z,5.27
2019-05-19T23:39:47.623Z,5.73
2019-05-19T23:42:16.703Z,5.93
2019-05-19T23:44:45.719Z,6.33
2019-05-19T23:47:14.897Z,6.07
2019-05-19T23:49:43.905Z,6.37
2019-05-19T23:52:13.068Z,6.10
2019-05-19T23:54:42.211Z,6.37
2019-05-19T23:57:11.368Z,6.10
2019-05-19T23:59:40.483Z,6.80
